Create Custom Reports and Graphics: Custom Report

North/Central Map

Map

15 Minute Data

South County Map

Map

15 Minute Data

Northern Sonoma County Latest

13 Stations

15 Minute Data | America/Los_Angeles
as of 10/26/20 6:24 PM PDT
Station Date Time Temp (°F) RH (%) Dew Pt (°F) Wind Spd (mph) Wind Dir (°) Wind Gust (mph) Latest Rain (In) Daily Rain (In) Daily Min Temp (°F) Daily Max Temp (°F)
Rockpile Upper (Cooley) 10/26/20 1815 66.3   4.4 5   6 -6.7   13.4 5.6 N | 353 10.3   2.4 0.00 0.00 50.3   4.6 75.5   3.0
Rockpile Lower (Cooley) 10/26/20 1800 74.2   6.6 2   6 -16.5   21.1 2.2 N | 354 5.5   5.4 0.00 0.00 52.7   4.6 78.9   5.0
Cloverdale-East (Ranch 83) 10/26/20 1815 75.1   5.8 3   6 -10.6   18.6 1.6 ENE | 59 6.0   5.5 0.00 0.00 45.5   6.8 81.1   2.2
Cloverdale-SE (Ranch 38) 10/26/20 1815 74.9   6.2 3   8 -12.9   23.6 4.6 NNE | 22 11.0   1.5 0.00 0.00 48.0   2.7 82.8   4.1
Geyserville-North (Hoffman) 10/26/20 1815 75.2   5.9 3   7 -8.1   20.5 2.8 N | 355 6.8   5.2 0.00 0.00 54.3   2.0 80.9   5.5
Geyserville (Ranch 3) 10/26/20 1815 73.5   4.4 4   6 -6.2   16.0 3.3 NW | 324 7.2   7.4 0.00 0.00 54.4   1.2 80.8   4.9
Geyserville-East (Ranch 40) 10/26/20 1815 74.6   7.0 3   8 -11.1   23.2 9.7 NNE | 23 25.2   8.7 0.00 0.00 58.0   7.5 82.0   4.8
Geyserville-South (Nervo Station) 10/26/20 1815 71.9   4.6 4   6 -5.4   16.2 2.2 WNW | 287 4.8   7.4 0.00 0.00 54.0   1.9 83.8   6.8
Lytton (River Oaks) 10/26/20 1815 73.6   3.7 4   5 -6.4   14.7 2.6 NE | 35 5.8   9.4 0.00 0.00 36.7   16.3 81.6   5.8
Jimtown-North (Piccolo-R15) 10/26/20 1815 74.8   5.5 4   6 -7.1   15.9 3.5 NE | 44 7.9   8.3 0.00 0.00 44.0   9.0 83.5   5.5
Jimtown-NE (Red Fan) 10/26/20 1815 74.3   5.5 4   7 -7.4   18.2 3.6 NE | 48 7.6   3.7 0.00 0.00 44.8   8.6 82.7   5.1
HWY 128/Chalk Hill Rd (Landslide) 10/26/20 1815 74.3   5.5 3   6 -11.5   19.9 3.9 N | 3 8.9   4.5 0.00 0.00 56.7   3.5 80.1   4.9
Lower Dry Creek Valley 10/26/20 1815 67.6   2.1 20   11 23.7   14.7 0.4 SSE | 156 2.8   6.7 0.00 0.00 36.6   15.4 83.7   6.1
Max     75.2 20 23.7 9.7 - 25.2 0.00 0.00 58.0 83.8
Avg     73.1 5 -6.6 3.5 - 8.4 0.00 - - -
Min     66.3 2 -16.5 0.4 - 2.8 0.00 0.00 36.6 75.5

Central Sonoma County Latest

26 Stations

15 Minute Data | America/Los_Angeles
as of 10/26/20 6:24 PM PDT
Station Date Time Temp (°F) RH (%) Dew Pt (°F) Wind Spd (mph) Wind Dir (°) Wind Gust (mph) Latest Rain (In) Daily Rain (In) Daily Min Temp (°F) Daily Max Temp (°F)
Healdsburg-South (Sodini) 10/26/20 1815 76.1   6.5 4   6 -3.1   14.9 5.9 N | 7 9.1   6.0 0.00 0.00 58.8   5.9 83.2   7.5
Windsor-NW (Ranch 8) 10/26/20 1815 74.4   4.3 5   8 1.0   16.8 1.5 SE | 126 5.2   3.6 0.00 0.00 57.4   4.1 86.5   6.3
Windsor-East (Ranch 16) 10/26/20 1815 75.3   7.5 2   9 -18.8   30.5 4.1 NE | 52 12.4   4.9 0.00 0.00 52.2   1.0 80.1   4.1
Mark West-North (Ranch 14) 10/26/20 1815 73.8   5.2 3   8 -15.2   25.6 1.0 NNW | 346 3.9   5.7 0.00 0.00 58.3   5.0 79.2   3.4
Windsor-SE (Silk Rd) 10/26/20 1815 74.0   4.8 3   6 -9.5   19.2 4.9 NE | 41 10.2   10.6 0.00 0.00 58.4   5.9 80.1   4.7
Fulton-NW (Ranch 5) 10/26/20 1815 74.6   5.2 4   8 -5.7   20.4 4.5 N | 0 11.1   6.3 0.00 0.00 58.5   5.5 78.5   3.7
Windsor-South (Laughlin Rd) 10/26/20 1815 73.1   5.5 - - - - - 0.00 0.00 57.2   4.2 82.5   7.1
Fulton-SE (Barnes Rd) 10/26/20 1815 72.8   5.6 8   9 6.8   13.8 7.6 NNE | 18 12.4   7.1 0.00 0.00 44.8   8.1 81.2   5.0
Fulton-SW (Ranch 21) 10/26/20 1815 74.3   10.7 2   52 -16.1   62.8 7.6 NNE | 26 20.3   14.3 0.00 0.00 55.3   2.4 79.0   4.2
Santa Rosa-NW (Goldfields) 10/26/20 1815 75.2   10.9 2   52 -17.7   64.8 8.6 NNE | 15 15.3   7.8 0.00 0.00 56.7   3.7 79.3   2.0
NW Santa Rosa (Piner Road) 10/26/20 1815 74.6   11.9 5   55 -2.3   50.6 3.7 NE | 39 9.2   4.9 0.00 0.00 55.7   3.0 79.0   4.5
River Rd South (Denner Ranch) 10/26/20 1815 74.8   12.6 3   58 -13.0   61.3 4.0 N | 350 12.7   2.4 0.00 0.00 58.0   5.9 81.1   4.7
West Santa Rosa (Hawk's Roost) 10/26/20 1815 74.7   12.8 3   59 -9.9   58.6 2.4 ENE | 76 9.0   6.3 0.00 0.00 58.3   5.4 79.9   3.9
Guerneville Rd West (Balletto) 10/26/20 1815 72.6   11.1 7   59 3.9   46.0 2.2 SE | 128 6.7   3.2 0.00 0.00 56.4   3.4 79.6   5.1
Guerneville Rd East (Rich Ranch) 10/26/20 1815 74.1   12.0 3   57 -10.8   59.0 - - - - - 54.7   1.7 79.5   4.5
Occidental Rd (Sebastopol) 10/26/20 1815 74.1   14.6 4   60 -5.1   52.5 5.3 NNE | 13 12.3   8.3 0.00 0.00 52.7   0.1 79.8   5.5
Lower Westside Rd (Ranch 12) 10/26/20 1815 66.0   0.4 19   1 21.8   0.8 0.5 NW | 323 2.4   1.0 0.00 0.00 50.3   0.7 83.4   6.2
Guerneville (Laughlin Rd) 10/26/20 1815 59.1   5.0 25   52 23.7   23.7 1.2 N | 2 3.5   1.1 0.00 0.00 30.2   18.9 83.8   8.5
Korbel (Winery) 10/26/20 1815 59.6   2.7 41   35 35.6   13.7 0.9 SSE | 156 3.0   0.6 0.00 0.00 37.1   13.4 82.8   8.4
Forestville (Shone Farms) 10/26/20 1815 73.3   4.7 3   8 -13.6   24.5 1.8 NNW | 348 4.5   4.7 0.00 0.00 57.7   6.7 80.9   5.3
Forestville-NE (Ranch 30) 10/26/20 1815 69.6   2.4 14   3 18.9   2.3 0.6 NNW | 333 2.5   6.6 0.00 0.00 55.3   5.3 82.3   3.5
Graton-West (Dutton Ranch) 10/26/20 1815 64.4   3.9 14   52 14.0   35.2 1.5 SSW | 194 3.2   1.2 0.00 0.00 55.2   6.4 81.2   6.8
Graton-South (Mill Station Rd) 10/26/20 1815 74.6   15.6 3   68 -10.6   60.3 2.4 NNE | 17 8.7   3.4 0.00 0.00 55.6   5.8 79.9   6.7
Sexton Valley (Jacqueline's Blk) 10/26/20 1815 65.9   8.5 15   61 17.1   32.9 1.5 WSW | 257 3.7   0.7 0.00 0.00 57.7   5.9 79.0   8.4
Sebastopol Hills (Burnside Rd) 10/26/20 1815 71.7   15.5 6   73 0.1   49.7 1.1 ENE | 72 4.9   1.7 0.00 0.00 56.5   5.3 78.4   7.9
Seaview/Fort Ross (Hirsch) 10/26/20 1815 69.6   17.9 1   86 -34.4   82.4 2.9 NE | 35 4.8   0.6 0.00 0.00 54.4   8.2 75.7   12.2
Max     76.1 41 35.6 8.6 - 20.3 0.00 0.00 58.8 86.5
Avg     71.6 8 -1.7 3.2 - 8.0 0.00 - - -
Min     59.1 1 -34.4 0.5 - 2.4 0.00 0.00 30.2 75.7

Southern Sonoma County Latest

14 Stations

15 Minute Data | America/Los_Angeles
as of 10/26/20 6:24 PM PDT
Station Date Time Temp (°F) RH (%) Dew Pt (°F) Wind Spd (mph) Wind Dir (°) Wind Gust (mph) Latest Rain (In) Daily Rain (In) Daily Min Temp (°F) Daily Max Temp (°F)
Lower Bennett Valley 10/26/20 1815 72.6   5.7 3   10 -15.8   29.6 6.6 N | 11 11.3   1.0 0.00 0.00 44.4   7.4 78.5   4.9
Kenwood (Kunde) 10/26/20 1815 73.1   5.7 4   9 -7.9   22.5 0.7 WNW | 303 5.5   2.5 0.00 0.00 56.7   9.2 77.9   4.6
Sonoma Valley (Bedrock) 10/26/20 1815 71.9   4.6 3   8 -11.9   23.7 2.5 NW | 326 9.1   3.7 0.00 0.00 55.9   11.9 77.4   4.6
Sonoma-West (Arnold) 10/26/20 1815 73.2   4.2 4   11 -8.6   28.0 1.6 NNW | 348 4.8   4.0 0.00 0.00 58.1   8.4 80.2   4.9
Schellville 10/26/20 1815 72.0   4.1 5   12 -4.3   25.3 0.2 NE | 40 3.1   1.0 0.00 0.00 56.1   5.7 82.3   5.9
Sonoma-SE (Napoli) 10/26/20 1815 74.1   4.6 4   11 -6.7   26.2 0.5 W | 263 3.1   6.0 0.00 0.00 57.6   7.7 80.0   4.1
Carneros (Ranch 71) 10/26/20 1815 73.4   4.9 3   12 -12.1   30.6 5.6 NW | 318 10.5   1.7 0.00 0.00 57.6   5.2 77.1   3.2
Carneros Upper (Ranch 81) 10/26/20 1815 73.1   5.1 2   12 -24.5   40.2 4.5 NNW | 332 9.5   11.7 - - 57.4   4.9 77.3   4.1
Carneros Lower (Ranch 81) 10/26/20 1815 72.2   4.2 3   12 -10.6   29.6 3.7 NNW | 346 9.0   5.0 0.00 0.00 57.8   4.1 78.0   4.2
Rohnert Park-West (Stony Point) 10/26/20 1815 69.2   12.2 14   61 17.8   31.6 3.6 NW | 311 6.4   2.7 0.00 0.00 54.1   1.6 80.3   6.5
Penngrove (Asellus) 10/26/20 1815 67.7   9.6 13   58 14.7   34.1 3.6 SSE | 152 7.5   3.3 0.00 0.00 56.2   3.0 80.5   5.8
Roger's Creek (Ranch 50) 10/26/20 1815 72.1   5.5 3   14 -10.8   31.3 2.4 NNW | 331 9.7   3.9 0.00 0.00 55.6   4.5 79.7   6.2
Petaluma (Ranch 10) 10/26/20 1815 71.2   11.9 12   55 16.1   32.4 1.8 NW | 305 5.3   3.0 0.00 0.00 47.5   3.0 82.2   6.3
Lakeville (Ranch 47) 10/26/20 1815 71.3   9.7 4   57 -5.8   53.9 5.3 ENE | 74 7.0   7.0 0.00 0.00 51.0   0.6 78.9   5.8
Max     74.1 14 17.8 6.6 - 11.3 0.00 0.00 58.1 82.3
Avg     71.9 5 -5.0 3.0 - 7.3 0.00 - - -
Min     67.7 2 -24.5 0.2 - 3.1 0.00 0.00 44.4 77.1

Latest Observations

Map

Hourly Data